LFPM 142330Z AUTO 19013KT 9999 -DZ NSC 10/09 Q0999

2019/12/14 23:30 LFPM 142330Z AUTO 19013KT 9999 -DZ NSC 10/09 Q0999 St Louis SEO Company | St Louis Web Design and Internet Marketing